PWSweather.com
Personal Weather Stations
Station Observations
DW0493
Castlewood Ranch, Castle Rock, CO

Castlewood RanchCastle Rock, CO

Lat: 39.36264, Lon: -104.79156

Elevation: 6608

Station Type: Davis Pro Vantage 2

http://www.castlerockweather.org

Latest ConditionsUpdated 2:10:03 PM MDT Thursday, Aug 25, 2016
Currently Today's Max Today's Min Today's Average
Temperature 68.8°F20.4°C 69.0°F20.6°C 42.2°F5.7°C 53.2°F11.8°C
Dew Point 50.0°F10.0°C 51.7°F10.9°C 36.2°F2.3°C 43.4°F6.3°C
Winds Calm Calm 10.0 mph S16.1 kmh S - 2.0 mph 3.2 kmh
Wind Gusts -- 14.0 mph22.5 kmh - -
Humidity 51% 84% 50% 70%
Pressure 30.93 in1047.4 mb 31.15 in1054.9 mb 30.85 in1044.7 mb -
Hour Temp Dew Point Humidity Winds Wind Gusts Pressure Precip Precip Rate Daily Precip Total
02:10 PM 68.8°F20.4°C 50.0°F10.0°C 51% Calm Calm -- 30.93 in1047.4 mb 0.00 in0.0 mm 0.00 in0.0 mm 0.01 in0.3 mm
02:05 PM 68.4°F20.2°C 50.6°F10.3°C 53% Calm Calm 4.0 mph6.4 kmh 30.92 in1047.1 mb 0.00 in0.0 mm 0.00 in0.0 mm 0.01 in0.3 mm
02:00 PM 67.9°F19.9°C 50.2°F10.1°C 53% Calm Calm 4.0 mph6.4 kmh 30.92 in1047.1 mb 0.00 in0.0 mm 0.00 in0.0 mm 0.01 in0.3 mm
01:55 PM 67.9°F19.9°C 49.7°F9.8°C 52% 2.0 mph ESE3.2 kmh ESE 6.0 mph9.7 kmh 30.91 in1046.7 mb 0.00 in0.0 mm 0.00 in0.0 mm 0.01 in0.3 mm
01:50 PM 68.7°F20.4°C 49.3°F9.6°C 50% Calm Calm 4.0 mph6.4 kmh 30.92 in1047.1 mb 0.00 in0.0 mm 0.00 in0.0 mm 0.01 in0.3 mm
01:45 PM 69.0°F20.6°C 50.7°F10.4°C 52% Calm Calm 2.0 mph3.2 kmh 30.90 in1046.4 mb 0.00 in0.0 mm 0.00 in0.0 mm 0.01 in0.3 mm
01:40 PM 68.8°F20.4°C 51.0°F10.6°C 53% Calm Calm 7.0 mph11.3 kmh 30.88 in1045.7 mb 0.00 in0.0 mm 0.00 in0.0 mm 0.01 in0.3 mm
01:35 PM 68.7°F20.4°C 51.4°F10.8°C 54% 1.0 mph NE1.6 kmh NE 5.0 mph8.0 kmh 30.91 in1046.7 mb 0.00 in0.0 mm 0.00 in0.0 mm 0.01 in0.3 mm
01:30 PM 68.4°F20.2°C 50.6°F10.3°C 53% Calm Calm 7.0 mph11.3 kmh 30.92 in1047.1 mb 0.00 in0.0 mm 0.00 in0.0 mm 0.01 in0.3 mm
01:25 PM 68.0°F20.0°C 51.7°F10.9°C 56% 6.0 mph N9.7 kmh N 7.0 mph11.3 kmh 30.93 in1047.4 mb 0.00 in0.0 mm 0.00 in0.0 mm 0.01 in0.3 mm
01:20 PM 67.7°F19.8°C 50.0°F10.0°C 53% 2.0 mph NE3.2 kmh NE 5.0 mph8.0 kmh 30.96 in1048.4 mb 0.00 in0.0 mm 0.00 in0.0 mm 0.01 in0.3 mm
01:15 PM 67.7°F19.8°C 50.5°F10.3°C 54% Calm Calm 7.0 mph11.3 kmh 30.94 in1047.7 mb 0.00 in0.0 mm 0.00 in0.0 mm 0.01 in0.3 mm
01:10 PM 67.8°F19.9°C 51.1°F10.6°C 55% 3.0 mph E4.8 kmh E 8.0 mph12.9 kmh 30.92 in1047.1 mb 0.00 in0.0 mm 0.00 in0.0 mm 0.01 in0.3 mm
01:05 PM 67.6°F19.8°C 51.4°F10.8°C 56% 5.0 mph E8.0 kmh E 7.0 mph11.3 kmh 30.92 in1047.1 mb 0.00 in0.0 mm 0.00 in0.0 mm 0.01 in0.3 mm
01:00 PM 67.4°F19.7°C 50.7°F10.4°C 55% Calm Calm 5.0 mph8.0 kmh 30.93 in1047.4 mb 0.00 in0.0 mm 0.00 in0.0 mm 0.01 in0.3 mm
12:55 PM 66.8°F19.3°C 51.1°F10.6°C 57% Calm Calm 6.0 mph9.7 kmh 30.96 in1048.4 mb 0.00 in0.0 mm 0.00 in0.0 mm 0.01 in0.3 mm
12:50 PM 66.7°F19.3°C 50.0°F10.0°C 55% 1.0 mph N1.6 kmh N 7.0 mph11.3 kmh 30.97 in1048.8 mb 0.00 in0.0 mm 0.00 in0.0 mm 0.01 in0.3 mm
12:45 PM 66.1°F18.9°C 50.4°F10.2°C 57% Calm Calm 12.0 mph19.3 kmh 30.95 in1048.1 mb 0.00 in0.0 mm 0.00 in0.0 mm 0.01 in0.3 mm
12:40 PM 65.4°F18.6°C 50.3°F10.2°C 58% 1.0 mph ESE1.6 kmh ESE 4.0 mph6.4 kmh 30.97 in1048.8 mb 0.00 in0.0 mm 0.00 in0.0 mm 0.01 in0.3 mm
12:35 PM 64.7°F18.2°C 49.6°F9.8°C 58% Calm Calm 2.0 mph3.2 kmh 31.00 in1049.8 mb 0.00 in0.0 mm 0.00 in0.0 mm 0.01 in0.3 mm
12:29 PM 65.0°F18.3°C 49.4°F9.7°C 57% Calm Calm 5.0 mph8.0 kmh 31.02 in1050.5 mb 0.00 in0.0 mm 0.00 in0.0 mm 0.01 in0.3 mm
12:25 PM 65.2°F18.4°C 50.1°F10.1°C 58% Calm Calm 4.0 mph6.4 kmh 31.02 in1050.5 mb 0.00 in0.0 mm 0.00 in0.0 mm 0.01 in0.3 mm
12:20 PM 65.4°F18.6°C 51.6°F10.9°C 61% Calm Calm -- 30.98 in1049.1 mb 0.00 in0.0 mm 0.00 in0.0 mm 0.01 in0.3 mm
12:15 PM 64.7°F18.2°C 49.6°F9.8°C 58% Calm Calm -- 30.88 in1045.7 mb 0.00 in0.0 mm 0.00 in0.0 mm 0.01 in0.3 mm
12:10 PM 64.7°F18.2°C 49.6°F9.8°C 58% Calm Calm -- 30.88 in1045.7 mb 0.00 in0.0 mm 0.00 in0.0 mm 0.01 in0.3 mm
12:05 PM 64.7°F18.2°C 49.6°F9.8°C 58% 1.0 mph NE1.6 kmh NE 1.0 mph1.6 kmh 30.91 in1046.7 mb 0.00 in0.0 mm 0.00 in0.0 mm 0.01 in0.3 mm
12:00 PM 64.3°F17.9°C 50.6°F10.3°C 61% Calm Calm 6.0 mph9.7 kmh 30.86 in1045.0 mb 0.00 in0.0 mm 0.00 in0.0 mm 0.01 in0.3 mm
11:55 AM 63.6°F17.6°C 50.4°F10.2°C 62% Calm Calm -- 30.91 in1046.7 mb 0.00 in0.0 mm 0.00 in0.0 mm 0.01 in0.3 mm
11:50 AM 63.5°F17.5°C 50.7°F10.4°C 63% 2.0 mph E3.2 kmh E 2.0 mph3.2 kmh 30.86 in1045.0 mb 0.00 in0.0 mm 0.00 in0.0 mm 0.01 in0.3 mm
11:45 AM 63.4°F17.4°C 51.4°F10.8°C 65% Calm Calm 9.0 mph14.5 kmh 30.88 in1045.7 mb 0.00 in0.0 mm 0.00 in0.0 mm 0.01 in0.3 mm
11:40 AM 62.9°F17.2°C 49.7°F9.8°C 62% 3.0 mph NE4.8 kmh NE 7.0 mph11.3 kmh 30.88 in1045.7 mb 0.00 in0.0 mm 0.00 in0.0 mm 0.01 in0.3 mm
11:35 AM 62.5°F16.9°C 49.3°F9.6°C 62% Calm Calm -- 30.91 in1046.7 mb 0.00 in0.0 mm 0.00 in0.0 mm 0.01 in0.3 mm
11:30 AM 62.1°F16.7°C 49.8°F9.9°C 64% Calm Calm -- 30.90 in1046.4 mb 0.00 in0.0 mm 0.00 in0.0 mm 0.01 in0.3 mm
11:25 AM 61.9°F16.6°C 49.6°F9.8°C 64% Calm Calm 2.0 mph3.2 kmh 30.91 in1046.7 mb 0.00 in0.0 mm 0.00 in0.0 mm 0.01 in0.3 mm
11:20 AM 61.7°F16.5°C 49.8°F9.9°C 65% Calm Calm 7.0 mph11.3 kmh 30.95 in1048.1 mb 0.00 in0.0 mm 0.00 in0.0 mm 0.01 in0.3 mm
11:15 AM 61.5°F16.4°C 50.1°F10.1°C 66% Calm Calm -- 30.98 in1049.1 mb 0.00 in0.0 mm 0.00 in0.0 mm 0.01 in0.3 mm
11:10 AM 61.4°F16.3°C 51.2°F10.7°C 69% Calm Calm -- 30.93 in1047.4 mb 0.00 in0.0 mm 0.00 in0.0 mm 0.01 in0.3 mm
11:05 AM 61.4°F16.3°C 49.5°F9.7°C 65% Calm Calm -- 30.92 in1047.1 mb 0.00 in0.0 mm 0.00 in0.0 mm 0.01 in0.3 mm
11:00 AM 61.5°F16.4°C 49.6°F9.8°C 65% Calm Calm 4.0 mph6.4 kmh 30.98 in1049.1 mb 0.00 in0.0 mm 0.00 in0.0 mm 0.01 in0.3 mm
10:55 AM 61.1°F16.2°C 50.1°F10.1°C 67% Calm Calm 9.0 mph14.5 kmh 30.98 in1049.1 mb 0.00 in0.0 mm 0.00 in0.0 mm 0.01 in0.3 mm
10:50 AM 60.4°F15.8°C 49.8°F9.9°C 68% Calm Calm 4.0 mph6.4 kmh 30.91 in1046.7 mb 0.00 in0.0 mm 0.00 in0.0 mm 0.01 in0.3 mm
10:45 AM 59.7°F15.4°C 49.5°F9.7°C 69% 2.0 mph NW3.2 kmh NW 6.0 mph9.7 kmh 30.91 in1046.7 mb 0.00 in0.0 mm 0.00 in0.0 mm 0.01 in0.3 mm
10:40 AM 59.4°F15.2°C 49.2°F9.6°C 69% Calm Calm 6.0 mph9.7 kmh 30.94 in1047.7 mb 0.00 in0.0 mm 0.00 in0.0 mm 0.01 in0.3 mm
10:35 AM 59.4°F15.2°C 49.6°F9.8°C 70% Calm Calm 4.0 mph6.4 kmh 30.93 in1047.4 mb 0.00 in0.0 mm 0.00 in0.0 mm 0.01 in0.3 mm
10:29 AM 59.0°F15.0°C 49.6°F9.8°C 71% 1.0 mph NW1.6 kmh NW 6.0 mph9.7 kmh 30.92 in1047.1 mb 0.00 in0.0 mm 0.00 in0.0 mm 0.01 in0.3 mm
10:25 AM 58.6°F14.8°C 49.6°F9.8°C 72% 6.0 mph WNW9.7 kmh WNW 8.0 mph12.9 kmh 31.00 in1049.8 mb 0.00 in0.0 mm 0.00 in0.0 mm 0.01 in0.3 mm
10:20 AM 57.9°F14.4°C 49.3°F9.6°C 73% Calm Calm 6.0 mph9.7 kmh 30.94 in1047.7 mb 0.00 in0.0 mm 0.00 in0.0 mm 0.01 in0.3 mm
10:15 AM 58.0°F14.4°C 49.4°F9.7°C 73% 3.0 mph NNW4.8 kmh NNW 6.0 mph9.7 kmh 30.95 in1048.1 mb 0.00 in0.0 mm 0.00 in0.0 mm 0.01 in0.3 mm
10:10 AM 58.2°F14.6°C 49.2°F9.6°C 72% Calm Calm 3.0 mph4.8 kmh 30.96 in1048.4 mb 0.00 in0.0 mm 0.00 in0.0 mm 0.01 in0.3 mm
10:05 AM 58.7°F14.8°C 49.3°F9.6°C 71% Calm Calm 6.0 mph9.7 kmh 30.94 in1047.7 mb 0.00 in0.0 mm 0.00 in0.0 mm 0.01 in0.3 mm
10:00 AM 59.0°F15.0°C 49.6°F9.8°C 71% 5.0 mph NW8.0 kmh NW 5.0 mph8.0 kmh 30.98 in1049.1 mb 0.00 in0.0 mm 0.00 in0.0 mm 0.01 in0.3 mm
09:55 AM 59.0°F15.0°C 50.4°F10.2°C 73% Calm Calm 6.0 mph9.7 kmh 30.98 in1049.1 mb 0.00 in0.0 mm 0.00 in0.0 mm 0.01 in0.3 mm
09:50 AM 58.4°F14.7°C 49.4°F9.7°C 72% 4.0 mph NW6.4 kmh NW 6.0 mph9.7 kmh 30.99 in1049.4 mb 0.00 in0.0 mm 0.00 in0.0 mm 0.01 in0.3 mm
09:45 AM 58.6°F14.8°C 48.9°F9.4°C 70% 6.0 mph NW9.7 kmh NW 6.0 mph9.7 kmh 30.99 in1049.4 mb 0.00 in0.0 mm 0.00 in0.0 mm 0.01 in0.3 mm
09:40 AM 58.7°F14.8°C 49.0°F9.4°C 70% Calm Calm -- 30.96 in1048.4 mb 0.00 in0.0 mm 0.00 in0.0 mm 0.01 in0.3 mm
09:35 AM 58.8°F14.9°C 48.7°F9.3°C 69% Calm Calm 5.0 mph8.0 kmh 31.02 in1050.5 mb 0.00 in0.0 mm 0.00 in0.0 mm 0.01 in0.3 mm
09:30 AM 58.3°F14.6°C 49.7°F9.8°C 73% Calm Calm 6.0 mph9.7 kmh 31.00 in1049.8 mb 0.00 in0.0 mm 0.00 in0.0 mm 0.01 in0.3 mm
09:25 AM 57.7°F14.3°C 48.0°F8.9°C 70% Calm Calm 5.0 mph8.0 kmh 31.00 in1049.8 mb 0.00 in0.0 mm 0.00 in0.0 mm 0.01 in0.3 mm
09:20 AM 57.7°F14.3°C 48.0°F8.9°C 70% Calm Calm -- 31.00 in1049.8 mb 0.00 in0.0 mm 0.00 in0.0 mm 0.01 in0.3 mm
09:15 AM 58.4°F14.7°C 47.9°F8.8°C 68% Calm Calm 2.0 mph3.2 kmh 31.00 in1049.8 mb 0.00 in0.0 mm 0.00 in0.0 mm 0.01 in0.3 mm
09:10 AM 58.1°F14.5°C 48.0°F8.9°C 69% Calm Calm -- 31.01 in1050.1 mb 0.00 in0.0 mm 0.00 in0.0 mm 0.01 in0.3 mm
09:05 AM 57.8°F14.3°C 47.7°F8.7°C 69% Calm Calm -- 31.03 in1050.8 mb 0.00 in0.0 mm 0.00 in0.0 mm 0.01 in0.3 mm
09:00 AM 57.6°F14.2°C 47.5°F8.6°C 69% Calm Calm -- 30.91 in1046.7 mb 0.00 in0.0 mm 0.00 in0.0 mm 0.01 in0.3 mm
08:55 AM 57.0°F13.9°C 47.3°F8.5°C 70% Calm Calm -- 30.93 in1047.4 mb 0.00 in0.0 mm 0.00 in0.0 mm 0.01 in0.3 mm
08:50 AM 56.6°F13.7°C 46.6°F8.1°C 69% Calm Calm -- 30.99 in1049.4 mb 0.00 in0.0 mm 0.00 in0.0 mm 0.01 in0.3 mm
08:45 AM 56.2°F13.4°C 46.2°F7.9°C 69% Calm Calm -- 30.95 in1048.1 mb 0.00 in0.0 mm 0.00 in0.0 mm 0.01 in0.3 mm
08:40 AM 55.8°F13.2°C 46.9°F8.3°C 72% Calm Calm -- 30.87 in1045.4 mb 0.00 in0.0 mm 0.00 in0.0 mm 0.01 in0.3 mm
08:35 AM 55.5°F13.1°C 45.9°F7.7°C 70% Calm Calm -- 30.87 in1045.4 mb 0.00 in0.0 mm 0.00 in0.0 mm 0.01 in0.3 mm
08:30 AM 55.6°F13.1°C 45.2°F7.3°C 68% Calm Calm -- 30.91 in1046.7 mb 0.00 in0.0 mm 0.00 in0.0 mm 0.01 in0.3 mm
08:25 AM 56.0°F13.3°C 45.6°F7.6°C 68% Calm Calm -- 30.93 in1047.4 mb 0.00 in0.0 mm 0.00 in0.0 mm 0.01 in0.3 mm
08:20 AM 55.9°F13.3°C 45.9°F7.7°C 69% Calm Calm -- 30.91 in1046.7 mb 0.00 in0.0 mm 0.00 in0.0 mm 0.01 in0.3 mm
08:15 AM 55.5°F13.1°C 45.5°F7.5°C 69% Calm Calm -- 30.85 in1044.7 mb 0.00 in0.0 mm 0.00 in0.0 mm 0.01 in0.3 mm
08:10 AM 55.3°F12.9°C 44.9°F7.2°C 68% Calm Calm 1.0 mph1.6 kmh 30.93 in1047.4 mb 0.00 in0.0 mm 0.00 in0.0 mm 0.01 in0.3 mm
08:05 AM 54.8°F12.7°C 45.2°F7.3°C 70% Calm Calm -- 30.95 in1048.1 mb 0.00 in0.0 mm 0.00 in0.0 mm 0.01 in0.3 mm
08:00 AM 54.2°F12.3°C 44.3°F6.8°C 69% Calm Calm -- 30.95 in1048.1 mb 0.00 in0.0 mm 0.00 in0.0 mm 0.01 in0.3 mm
07:55 AM 53.4°F11.9°C 43.9°F6.6°C 70% Calm Calm -- 30.92 in1047.1 mb 0.00 in0.0 mm 0.00 in0.0 mm 0.01 in0.3 mm
07:50 AM 52.8°F11.6°C 43.3°F6.3°C 70% Calm Calm -- 30.94 in1047.7 mb 0.00 in0.0 mm 0.00 in0.0 mm 0.01 in0.3 mm
07:45 AM 52.1°F11.2°C 42.6°F5.9°C 70% Calm Calm -- 31.03 in1050.8 mb 0.00 in0.0 mm 0.00 in0.0 mm 0.01 in0.3 mm
07:40 AM 51.4°F10.8°C 42.7°F5.9°C 72% Calm Calm -- 30.99 in1049.4 mb 0.00 in0.0 mm 0.00 in0.0 mm 0.01 in0.3 mm
07:35 AM 50.6°F10.3°C 42.3°F5.7°C 73% Calm Calm -- 31.07 in1052.2 mb 0.00 in0.0 mm 0.00 in0.0 mm 0.01 in0.3 mm
07:29 AM 49.5°F9.7°C 41.9°F5.5°C 75% Calm Calm -- 31.06 in1051.8 mb 0.00 in0.0 mm 0.00 in0.0 mm 0.01 in0.3 mm
07:25 AM 48.6°F9.2°C 41.4°F5.2°C 76% Calm Calm -- 31.04 in1051.1 mb 0.00 in0.0 mm 0.00 in0.0 mm 0.01 in0.3 mm
07:20 AM 47.9°F8.8°C 41.4°F5.2°C 78% Calm Calm -- 31.14 in1054.5 mb 0.00 in0.0 mm 0.00 in0.0 mm 0.01 in0.3 mm
07:15 AM 47.4°F8.6°C 40.9°F4.9°C 78% Calm Calm -- 31.14 in1054.5 mb 0.00 in0.0 mm 0.00 in0.0 mm 0.01 in0.3 mm
07:10 AM 46.8°F8.2°C 41.0°F5.0°C 80% Calm Calm -- 31.11 in1053.5 mb 0.00 in0.0 mm 0.00 in0.0 mm 0.01 in0.3 mm
07:05 AM 46.0°F7.8°C 40.8°F4.9°C 82% Calm Calm -- 31.15 in1054.9 mb 0.00 in0.0 mm 0.00 in0.0 mm 0.01 in0.3 mm
07:00 AM 45.1°F7.3°C 39.9°F4.4°C 82% Calm Calm -- 31.14 in1054.5 mb 0.00 in0.0 mm 0.00 in0.0 mm 0.01 in0.3 mm
06:55 AM 44.9°F7.2°C 39.8°F4.3°C 82% Calm Calm -- 31.02 in1050.5 mb 0.00 in0.0 mm 0.00 in0.0 mm 0.01 in0.3 mm
06:50 AM 44.7°F7.1°C 39.6°F4.2°C 82% Calm Calm -- 31.07 in1052.2 mb 0.00 in0.0 mm 0.00 in0.0 mm 0.01 in0.3 mm
06:45 AM 44.6°F7.0°C 39.5°F4.2°C 82% Calm Calm -- 31.05 in1051.5 mb 0.00 in0.0 mm 0.00 in0.0 mm 0.01 in0.3 mm
06:40 AM 44.4°F6.9°C 39.3°F4.1°C 82% Calm Calm 4.0 mph6.4 kmh 31.10 in1053.2 mb 0.00 in0.0 mm 0.00 in0.0 mm 0.01 in0.3 mm
06:35 AM 44.2°F6.8°C 39.1°F3.9°C 82% 2.0 mph S3.2 kmh S 4.0 mph6.4 kmh 31.03 in1050.8 mb 0.00 in0.0 mm 0.00 in0.0 mm 0.01 in0.3 mm
06:30 AM 44.1°F6.7°C 39.0°F3.9°C 82% 2.0 mph S3.2 kmh S 4.0 mph6.4 kmh 31.01 in1050.1 mb 0.00 in0.0 mm 0.00 in0.0 mm 0.01 in0.3 mm
06:25 AM 44.0°F6.7°C 38.9°F3.8°C 82% 4.0 mph S6.4 kmh S 4.0 mph6.4 kmh 31.01 in1050.1 mb 0.00 in0.0 mm 0.00 in0.0 mm 0.01 in0.3 mm
06:20 AM 43.6°F6.4°C 38.8°F3.8°C 83% 3.0 mph S4.8 kmh S 6.0 mph9.7 kmh 31.05 in1051.5 mb 0.00 in0.0 mm 0.00 in0.0 mm 0.01 in0.3 mm
06:15 AM 43.3°F6.3°C 38.5°F3.6°C 83% Calm Calm -- 31.06 in1051.8 mb 0.00 in0.0 mm 0.00 in0.0 mm 0.01 in0.3 mm
06:10 AM 43.0°F6.1°C 38.2°F3.4°C 83% Calm Calm -- 31.09 in1052.8 mb 0.00 in0.0 mm 0.00 in0.0 mm 0.01 in0.3 mm
06:05 AM 42.5°F5.8°C 38.0°F3.3°C 84% Calm Calm -- 31.05 in1051.5 mb 0.00 in0.0 mm 0.00 in0.0 mm 0.01 in0.3 mm
06:00 AM 42.2°F5.7°C 37.7°F3.2°C 84% Calm Calm -- 31.00 in1049.8 mb 0.00 in0.0 mm 0.00 in0.0 mm 0.01 in0.3 mm
05:55 AM 42.2°F5.7°C 37.4°F3.0°C 83% Calm Calm -- 31.02 in1050.5 mb 0.00 in0.0 mm 0.00 in0.0 mm 0.01 in0.3 mm
05:50 AM 42.6°F5.9°C 37.2°F2.9°C 81% Calm Calm -- 31.02 in1050.5 mb 0.00 in0.0 mm 0.00 in0.0 mm 0.01 in0.3 mm
05:45 AM 43.3°F6.3°C 37.9°F3.3°C 81% Calm Calm -- 31.02 in1050.5 mb 0.00 in0.0 mm 0.00 in0.0 mm 0.01 in0.3 mm
05:40 AM 43.5°F6.4°C 38.1°F3.4°C 81% Calm Calm -- 31.07 in1052.2 mb 0.00 in0.0 mm 0.00 in0.0 mm 0.01 in0.3 mm
05:35 AM 43.6°F6.4°C 38.2°F3.4°C 81% Calm Calm -- 31.07 in1052.2 mb 0.00 in0.0 mm 0.00 in0.0 mm 0.01 in0.3 mm
05:30 AM 43.6°F6.4°C 38.2°F3.4°C 81% Calm Calm 2.0 mph3.2 kmh 31.05 in1051.5 mb 0.00 in0.0 mm 0.00 in0.0 mm 0.01 in0.3 mm
05:25 AM 44.0°F6.7°C 37.9°F3.3°C 79% Calm Calm 3.0 mph4.8 kmh 31.05 in1051.5 mb 0.00 in0.0 mm 0.00 in0.0 mm 0.01 in0.3 mm
05:20 AM 44.6°F7.0°C 38.5°F3.6°C 79% 2.0 mph S3.2 kmh S 2.0 mph3.2 kmh 31.07 in1052.2 mb 0.00 in0.0 mm 0.00 in0.0 mm 0.01 in0.3 mm
05:15 AM 45.0°F7.2°C 38.9°F3.8°C 79% 2.0 mph S3.2 kmh S 5.0 mph8.0 kmh 31.11 in1053.5 mb 0.00 in0.0 mm 0.00 in0.0 mm 0.01 in0.3 mm
05:10 AM 45.0°F7.2°C 38.9°F3.8°C 79% 4.0 mph S6.4 kmh S 7.0 mph11.3 kmh 31.02 in1050.5 mb 0.00 in0.0 mm 0.00 in0.0 mm 0.01 in0.3 mm
05:05 AM 45.0°F7.2°C 38.9°F3.8°C 79% 4.0 mph S6.4 kmh S 6.0 mph9.7 kmh 31.09 in1052.8 mb 0.00 in0.0 mm 0.00 in0.0 mm 0.01 in0.3 mm
05:00 AM 45.1°F7.3°C 39.0°F3.9°C 79% Calm Calm 4.0 mph6.4 kmh 31.10 in1053.2 mb 0.00 in0.0 mm 0.00 in0.0 mm 0.01 in0.3 mm
04:55 AM 45.3°F7.4°C 38.9°F3.8°C 78% 1.0 mph S1.6 kmh S 5.0 mph8.0 kmh 31.09 in1052.8 mb 0.00 in0.0 mm 0.00 in0.0 mm 0.01 in0.3 mm
04:50 AM 45.5°F7.5°C 39.1°F3.9°C 78% 5.0 mph S8.0 kmh S 6.0 mph9.7 kmh 31.09 in1052.8 mb 0.00 in0.0 mm 0.00 in0.0 mm 0.01 in0.3 mm
04:45 AM 45.7°F7.6°C 39.2°F4.0°C 78% 5.0 mph S8.0 kmh S 6.0 mph9.7 kmh 31.02 in1050.5 mb 0.00 in0.0 mm 0.00 in0.0 mm 0.01 in0.3 mm
04:40 AM 45.6°F7.6°C 39.2°F4.0°C 78% 3.0 mph S4.8 kmh S 6.0 mph9.7 kmh 31.02 in1050.5 mb 0.00 in0.0 mm 0.00 in0.0 mm 0.01 in0.3 mm
04:35 AM 45.4°F7.4°C 39.0°F3.9°C 78% 4.0 mph S6.4 kmh S 4.0 mph6.4 kmh 31.03 in1050.8 mb 0.00 in0.0 mm 0.00 in0.0 mm 0.01 in0.3 mm
04:30 AM 45.5°F7.5°C 38.7°F3.7°C 77% 3.0 mph S4.8 kmh S 5.0 mph8.0 kmh 31.04 in1051.1 mb 0.00 in0.0 mm 0.00 in0.0 mm 0.01 in0.3 mm
04:25 AM 45.9°F7.7°C 39.1°F3.9°C 77% 4.0 mph S6.4 kmh S 6.0 mph9.7 kmh 31.04 in1051.1 mb 0.00 in0.0 mm 0.00 in0.0 mm 0.01 in0.3 mm
04:20 AM 46.0°F7.8°C 38.9°F3.8°C 76% 5.0 mph S8.0 kmh S 9.0 mph14.5 kmh 31.09 in1052.8 mb 0.00 in0.0 mm 0.00 in0.0 mm 0.01 in0.3 mm
04:15 AM 46.1°F7.8°C 39.0°F3.9°C 76% 3.0 mph S4.8 kmh S 7.0 mph11.3 kmh 31.10 in1053.2 mb 0.00 in0.0 mm 0.00 in0.0 mm 0.01 in0.3 mm
04:10 AM 46.2°F7.9°C 39.1°F3.9°C 76% 4.0 mph S6.4 kmh S 10.0 mph16.1 kmh 31.05 in1051.5 mb 0.00 in0.0 mm 0.00 in0.0 mm 0.01 in0.3 mm
04:05 AM 46.1°F7.8°C 39.0°F3.9°C 76% 3.0 mph S4.8 kmh S 7.0 mph11.3 kmh 31.08 in1052.5 mb 0.00 in0.0 mm 0.00 in0.0 mm 0.01 in0.3 mm
04:00 AM 46.0°F7.8°C 38.9°F3.8°C 76% 3.0 mph S4.8 kmh S 6.0 mph9.7 kmh 31.10 in1053.2 mb 0.00 in0.0 mm 0.00 in0.0 mm 0.01 in0.3 mm
03:55 AM 46.0°F7.8°C 38.5°F3.6°C 75% 4.0 mph S6.4 kmh S 5.0 mph8.0 kmh 31.08 in1052.5 mb 0.00 in0.0 mm 0.00 in0.0 mm 0.01 in0.3 mm
03:50 AM 46.1°F7.8°C 38.6°F3.7°C 75% 3.0 mph S4.8 kmh S 9.0 mph14.5 kmh 31.08 in1052.5 mb 0.00 in0.0 mm 0.00 in0.0 mm 0.01 in0.3 mm
03:45 AM 45.8°F7.7°C 38.0°F3.3°C 74% 5.0 mph S8.0 kmh S 9.0 mph14.5 kmh 31.04 in1051.1 mb 0.01 in0.3 mm 0.00 in0.0 mm 0.01 in0.3 mm
03:40 AM 45.9°F7.7°C 37.8°F3.2°C 73% 2.0 mph S3.2 kmh S 4.0 mph6.4 kmh 31.09 in1052.8 mb 0.01 in0.3 mm 0.00 in0.0 mm 0.01 in0.3 mm
03:35 AM 46.3°F7.9°C 37.8°F3.2°C 72% Calm Calm 5.0 mph8.0 kmh 31.06 in1051.8 mb 0.01 in0.3 mm 0.00 in0.0 mm 0.01 in0.3 mm
03:31 AM 46.7°F8.2°C 37.8°F3.2°C 71% 3.0 mph S4.8 kmh S 7.0 mph11.3 kmh 31.05 in1051.5 mb 0.01 in0.3 mm 0.00 in0.0 mm 0.01 in0.3 mm
03:30 AM 46.7°F8.2°C 37.5°F3.1°C 70% 3.0 mph S4.8 kmh S 7.0 mph11.3 kmh 31.06 in1051.8 mb 0.01 in0.3 mm 0.00 in0.0 mm 0.01 in0.3 mm
03:25 AM 46.8°F8.2°C 37.2°F2.9°C 69% 5.0 mph S8.0 kmh S 7.0 mph11.3 kmh 31.05 in1051.5 mb 0.01 in0.3 mm 0.00 in0.0 mm 0.01 in0.3 mm
03:20 AM 46.9°F8.3°C 36.9°F2.7°C 68% 4.0 mph S6.4 kmh S 5.0 mph8.0 kmh 31.02 in1050.5 mb 0.01 in0.3 mm 0.00 in0.0 mm 0.01 in0.3 mm
03:15 AM 47.2°F8.4°C 36.8°F2.7°C 67% 4.0 mph S6.4 kmh S 6.0 mph9.7 kmh 31.04 in1051.1 mb 0.01 in0.3 mm 0.00 in0.0 mm 0.01 in0.3 mm
03:10 AM 47.4°F8.6°C 36.6°F2.6°C 66% 5.0 mph S8.0 kmh S 8.0 mph12.9 kmh 31.04 in1051.1 mb 0.01 in0.3 mm 0.00 in0.0 mm 0.01 in0.3 mm
03:05 AM 47.6°F8.7°C 36.4°F2.4°C 65% 6.0 mph S9.7 kmh S 6.0 mph9.7 kmh 31.05 in1051.5 mb 0.01 in0.3 mm 0.00 in0.0 mm 0.01 in0.3 mm
03:00 AM 47.7°F8.7°C 36.5°F2.5°C 65% 4.0 mph S6.4 kmh S 11.0 mph17.7 kmh 31.04 in1051.1 mb 0.01 in0.3 mm 0.00 in0.0 mm 0.01 in0.3 mm
02:55 AM 47.4°F8.6°C 36.2°F2.3°C 65% 6.0 mph S9.7 kmh S 9.0 mph14.5 kmh 31.04 in1051.1 mb 0.01 in0.3 mm 0.00 in0.0 mm 0.01 in0.3 mm
02:50 AM 47.5°F8.6°C 36.3°F2.4°C 65% 3.0 mph S4.8 kmh S 10.0 mph16.1 kmh 31.05 in1051.5 mb 0.01 in0.3 mm 0.00 in0.0 mm 0.01 in0.3 mm
02:45 AM 47.2°F8.4°C 36.4°F2.4°C 66% 5.0 mph S8.0 kmh S 9.0 mph14.5 kmh 31.04 in1051.1 mb 0.01 in0.3 mm 0.12 in3.0 mm 0.01 in0.3 mm
02:40 AM 47.1°F8.4°C 36.7°F2.6°C 67% 5.0 mph SSE8.0 kmh SSE 10.0 mph16.1 kmh 31.04 in1051.1 mb 0.00 in0.0 mm 0.00 in0.0 mm 0.00 in0.0 mm
02:35 AM 47.0°F8.3°C 37.0°F2.8°C 68% 3.0 mph S4.8 kmh S 9.0 mph14.5 kmh 31.06 in1051.8 mb 0.00 in0.0 mm 0.00 in0.0 mm 0.00 in0.0 mm
02:30 AM 47.0°F8.3°C 37.0°F2.8°C 68% 5.0 mph S8.0 kmh S 10.0 mph16.1 kmh 31.05 in1051.5 mb 0.00 in0.0 mm 0.00 in0.0 mm 0.00 in0.0 mm
02:25 AM 47.3°F8.5°C 37.7°F3.2°C 69% 3.0 mph S4.8 kmh S 12.0 mph19.3 kmh 31.05 in1051.5 mb 0.00 in0.0 mm 0.00 in0.0 mm 0.00 in0.0 mm
02:20 AM 47.2°F8.4°C 37.6°F3.1°C 69% 10.0 mph S16.1 kmh S 14.0 mph22.5 kmh 31.04 in1051.1 mb 0.00 in0.0 mm 0.00 in0.0 mm 0.00 in0.0 mm
02:15 AM 47.0°F8.3°C 37.7°F3.2°C 70% 5.0 mph S8.0 kmh S 11.0 mph17.7 kmh 31.05 in1051.5 mb 0.00 in0.0 mm 0.00 in0.0 mm 0.00 in0.0 mm
02:10 AM 47.1°F8.4°C 37.8°F3.2°C 70% 7.0 mph SSE11.3 kmh SSE 9.0 mph14.5 kmh 31.05 in1051.5 mb 0.00 in0.0 mm 0.00 in0.0 mm 0.00 in0.0 mm
02:05 AM 47.4°F8.6°C 37.8°F3.2°C 69% 3.0 mph SSE4.8 kmh SSE 7.0 mph11.3 kmh 31.02 in1050.5 mb 0.00 in0.0 mm 0.00 in0.0 mm 0.00 in0.0 mm
02:00 AM 47.8°F8.8°C 38.1°F3.4°C 69% 5.0 mph SSE8.0 kmh SSE 9.0 mph14.5 kmh 31.03 in1050.8 mb 0.00 in0.0 mm 0.00 in0.0 mm 0.00 in0.0 mm
01:55 AM 48.3°F9.1°C 38.2°F3.4°C 68% 6.0 mph SSE9.7 kmh SSE 10.0 mph16.1 kmh 31.02 in1050.5 mb 0.00 in0.0 mm 0.00 in0.0 mm 0.00 in0.0 mm
01:50 AM 48.4°F9.1°C 38.7°F3.7°C 69% 3.0 mph S4.8 kmh S 12.0 mph19.3 kmh 31.04 in1051.1 mb 0.00 in0.0 mm 0.00 in0.0 mm 0.00 in0.0 mm
01:45 AM 48.3°F9.1°C 38.6°F3.7°C 69% 7.0 mph SSW11.3 kmh SSW 7.0 mph11.3 kmh 31.05 in1051.5 mb 0.00 in0.0 mm 0.00 in0.0 mm 0.00 in0.0 mm
01:40 AM 48.2°F9.0°C 38.9°F3.8°C 70% 2.0 mph S3.2 kmh S 11.0 mph17.7 kmh 31.04 in1051.1 mb 0.00 in0.0 mm 0.00 in0.0 mm 0.00 in0.0 mm
01:35 AM 48.1°F8.9°C 38.8°F3.8°C 70% 7.0 mph S11.3 kmh S 10.0 mph16.1 kmh 31.04 in1051.1 mb 0.00 in0.0 mm 0.00 in0.0 mm 0.00 in0.0 mm
01:29 AM 48.2°F9.0°C 38.5°F3.6°C 69% 3.0 mph S4.8 kmh S 10.0 mph16.1 kmh 31.04 in1051.1 mb 0.00 in0.0 mm 0.00 in0.0 mm 0.00 in0.0 mm
01:25 AM 48.2°F9.0°C 39.6°F4.2°C 72% 4.0 mph S6.4 kmh S 4.0 mph6.4 kmh 31.04 in1051.1 mb 0.00 in0.0 mm 0.00 in0.0 mm 0.00 in0.0 mm
01:20 AM 48.3°F9.1°C 38.6°F3.7°C 69% 4.0 mph S6.4 kmh S 4.0 mph6.4 kmh 31.04 in1051.1 mb 0.00 in0.0 mm 0.00 in0.0 mm 0.00 in0.0 mm
01:15 AM 48.5°F9.2°C 38.8°F3.8°C 69% 3.0 mph S4.8 kmh S 4.0 mph6.4 kmh 31.03 in1050.8 mb 0.00 in0.0 mm 0.00 in0.0 mm 0.00 in0.0 mm
01:10 AM 48.4°F9.1°C 38.3°F3.5°C 68% 4.0 mph S6.4 kmh S 4.0 mph6.4 kmh 31.00 in1049.8 mb 0.00 in0.0 mm 0.00 in0.0 mm 0.00 in0.0 mm
01:05 AM 48.5°F9.2°C 38.4°F3.6°C 68% 2.0 mph S3.2 kmh S 3.0 mph4.8 kmh 31.01 in1050.1 mb 0.00 in0.0 mm 0.00 in0.0 mm 0.00 in0.0 mm
01:00 AM 48.4°F9.1°C 38.3°F3.5°C 68% 6.0 mph S9.7 kmh S 7.0 mph11.3 kmh 31.01 in1050.1 mb 0.00 in0.0 mm 0.00 in0.0 mm 0.00 in0.0 mm
12:55 AM 48.4°F9.1°C 38.7°F3.7°C 69% 2.0 mph S3.2 kmh S 2.0 mph3.2 kmh 31.00 in1049.8 mb 0.00 in0.0 mm 0.00 in0.0 mm 0.00 in0.0 mm
12:50 AM 48.1°F8.9°C 38.8°F3.8°C 70% 9.0 mph S14.5 kmh S 9.0 mph14.5 kmh 31.00 in1049.8 mb 0.00 in0.0 mm 0.00 in0.0 mm 0.00 in0.0 mm
12:45 AM 48.1°F8.9°C 38.8°F3.8°C 70% 4.0 mph S6.4 kmh S 6.0 mph9.7 kmh 31.04 in1051.1 mb 0.00 in0.0 mm 0.00 in0.0 mm 0.00 in0.0 mm
12:40 AM 48.1°F8.9°C 39.2°F4.0°C 71% 9.0 mph S14.5 kmh S 9.0 mph14.5 kmh 31.03 in1050.8 mb 0.00 in0.0 mm 0.00 in0.0 mm 0.00 in0.0 mm
12:35 AM 48.2°F9.0°C 39.3°F4.1°C 71% 7.0 mph S11.3 kmh S 7.0 mph11.3 kmh 31.01 in1050.1 mb 0.00 in0.0 mm 0.00 in0.0 mm 0.00 in0.0 mm
12:30 AM 48.2°F9.0°C 39.6°F4.2°C 72% 3.0 mph S4.8 kmh S 5.0 mph8.0 kmh 31.00 in1049.8 mb 0.00 in0.0 mm 0.00 in0.0 mm 0.00 in0.0 mm
12:25 AM 48.1°F8.9°C 39.9°F4.4°C 73% 10.0 mph S16.1 kmh S 10.0 mph16.1 kmh 31.01 in1050.1 mb 0.00 in0.0 mm 0.00 in0.0 mm 0.00 in0.0 mm
12:20 AM 47.9°F8.8°C 40.4°F4.7°C 75% 7.0 mph S11.3 kmh S 9.0 mph14.5 kmh 30.97 in1048.8 mb 0.00 in0.0 mm 0.00 in0.0 mm 0.00 in0.0 mm
12:15 AM 47.8°F8.8°C 40.6°F4.8°C 76% 3.0 mph S4.8 kmh S 4.0 mph6.4 kmh 30.97 in1048.8 mb 0.00 in0.0 mm 0.00 in0.0 mm 0.00 in0.0 mm
12:10 AM 47.7°F8.7°C 40.9°F4.9°C 77% 8.0 mph S12.9 kmh S 8.0 mph12.9 kmh 30.99 in1049.4 mb 0.00 in0.0 mm 0.00 in0.0 mm 0.00 in0.0 mm
12:05 AM 47.7°F8.7°C 41.2°F5.1°C 78% 5.0 mph S8.0 kmh S 6.0 mph9.7 kmh 30.99 in1049.4 mb 0.00 in0.0 mm 0.00 in0.0 mm 0.00 in0.0 mm
12:00 AM 47.7°F8.7°C 41.5°F5.3°C 79% 4.0 mph S6.4 kmh S 6.0 mph9.7 kmh 31.03 in1050.8 mb 0.00 in0.0 mm 0.00 in0.0 mm 0.00 in0.0 mm